Ann Arbor, Michigan
Current Conditions -  °F | °C
As of 4:53 PM on Monday 20 Oct 2014 (Local Time) from KARB Reporting Station
Overcast Overcast  
Wind Chill: 55°   Ceiling: 5500
Heat Index: 55°   Visibility: 10mi
Dew Point: 47°   Wind: 10mph
Humidity: 74%   Direction: 260°W
Pressure: 29.8"   Gusts: NA
Location:  42.28°N, 83.75°W
Report Text: KARB 202053Z AUTO 26009KT 10SM OVC055 13/08 A2980 RMK AO2 SLP091 T01280083 53004
Loading
Personal Weather Stations






























Interactive Weather Map
Tropical Storm Tracking
New forecast layout! Learn more

10-Day Weather Forecast

Advertisements
Track Severe Weather on mobile